Terminal Aerodrome Forecast
Issued by NWS

Home | Current Version | Previous Version | Text Only | Print | Product List | Glossary On
Versions: 1 2 3 4 5 6 7 8 9 10 11 12
208
FTUS41 KLWX 242323
TAFMTN
TAF
KMTN 242323Z 2500/2524 16004KT P6SM SCT150
     FM250200 18005KT P6SM VCTS BKN070CB
     FM250500 00000KT P6SM BKN100
     FM251600 21006KT P6SM BKN100
      AMD NOT SKED 2502/2512=

USA.gov is the U.S. government's official web portal to all federal, state and local government web resources and services.